Tessalit, Mali
Current Conditions -  °F | °C
As of 11:30 PM on Tuesday 21 Oct 2014 (Local Time) from DAAT Reporting Station
Clear Clear  
Wind Chill: 61°   Ceiling: Unl
Heat Index: 61°   Visibility: 6mi
Dew Point: 28°   Wind: 6mph
Humidity: 29%   Direction: 110°ESE
Pressure: 30.18"   Gusts: NA
Location:  20.28°N, 0.98°E
Report Text: DAAT 212330Z 11005KT CAVOK 16/M02 Q1022
Loading
Personal Weather Stations






























Interactive Weather Map
Tropical Storm Tracking
New forecast layout! Learn more

10-Day Weather Forecast

Advertisements
Track Severe Weather on mobile